Time;durP1;ratioP1;P1;durP2;ratioP2;P2;SDS_P1;SDS_P2;PMS_P1;PMS_P2;Temp;Humidity;BMP_temperature;BMP_pressure;BME280_temperature;BME280_humidity;BME280_pressure;Samples;Min_cycle;Max_cycle;Signal;HPM_P1;HPM_P2
2021/10/28 00:12:33;;;;;;;8.95;5.47;;;10.90;99.90;;;;;;4863079;29;20062;-75
2021/10/28 00:15:02;;;;;;;6.90;6.20;;;10.90;99.90;;;;;;4863120;29;20069;-74
2021/10/28 00:18:05;;;;;;;10.65;6.47;;;10.90;99.90;;;;;;4863268;29;20033;-74
2021/10/28 00:20:15;;;;;;;8.13;6.53;;;10.80;99.90;;;;;;4861985;29;20036;-74
2021/10/28 00:22:40;;;;;;;7.18;6.43;;;10.80;99.90;;;;;;4861820;29;20410;-74
2021/10/28 00:25:07;;;;;;;7.10;6.40;;;10.80;99.90;;;;;;4862854;29;20033;-75
2021/10/28 00:27:34;;;;;;;6.90;5.97;;;10.80;99.90;;;;;;4862344;29;20021;-75
2021/10/28 00:29:59;;;;;;;7.88;5.95;;;10.70;99.90;;;;;;4862899;29;20037;-75
2021/10/28 00:32:25;;;;;;;8.40;6.35;;;10.70;99.90;;;;;;4863087;29;20058;-75
2021/10/28 00:34:50;;;;;;;10.88;6.60;;;10.70;99.90;;;;;;4861165;29;20041;-74
2021/10/28 00:37:16;;;;;;;6.70;5.97;;;10.60;99.90;;;;;;4861731;29;20036;-73
2021/10/28 00:39:42;;;;;;;7.43;6.18;;;10.60;99.90;;;;;;4862845;29;20032;-73
2021/10/28 00:42:08;;;;;;;6.53;5.80;;;10.60;99.90;;;;;;4860665;29;20029;-73
2021/10/28 00:44:33;;;;;;;6.70;6.00;;;10.60;99.90;;;;;;4862793;29;20110;-73
2021/10/28 00:46:59;;;;;;;7.32;6.55;;;10.60;99.90;;;;;;4862609;29;20104;-73
2021/10/28 00:49:24;;;;;;;7.47;5.93;;;10.50;99.90;;;;;;4862345;29;20443;-73
2021/10/28 00:51:50;;;;;;;6.38;5.78;;;10.50;99.90;;;;;;4846167;29;20419;-73
2021/10/28 00:54:21;;;;;;;7.90;6.15;;;10.50;99.90;;;;;;4861787;29;20368;-73
2021/10/28 00:56:47;;;;;;;8.13;5.93;;;10.50;99.90;;;;;;4862718;29;20021;-73
2021/10/28 00:59:13;;;;;;;7.60;5.85;;;10.50;99.90;;;;;;4860879;29;20052;-73
2021/10/28 01:01:39;;;;;;;9.18;5.65;;;10.40;99.90;;;;;;4861862;29;20025;-73
2021/10/28 01:04:06;;;;;;;6.82;6.13;;;10.40;99.90;;;;;;4860328;29;20112;-74
2021/10/28 01:06:32;;;;;;;14.00;6.28;;;10.40;99.90;;;;;;4862425;29;20021;-74
2021/10/28 01:08:58;;;;;;;9.05;6.30;;;10.40;99.90;;;;;;4861416;29;20077;-74
2021/10/28 01:11:25;;;;;;;7.40;5.80;;;10.40;99.90;;;;;;4862583;29;20036;-74
2021/10/28 01:13:51;;;;;;;8.10;6.22;;;10.30;99.90;;;;;;4861067;29;20037;-74
2021/10/28 01:16:20;;;;;;;6.90;6.20;;;10.30;99.90;;;;;;4861395;29;20595;-75
2021/10/28 01:18:45;;;;;;;8.25;6.13;;;10.30;99.90;;;;;;4862095;29;20052;-75
2021/10/28 01:21:11;;;;;;;6.60;5.90;;;10.20;99.90;;;;;;4862023;29;20104;-73
2021/10/28 01:23:40;;;;;;;7.00;6.05;;;10.20;99.90;;;;;;4861556;29;20033;-73
2021/10/28 01:26:08;;;;;;;8.27;6.07;;;10.20;99.90;;;;;;4860537;29;20032;-73
2021/10/28 01:28:37;;;;;;;6.72;5.88;;;10.10;99.90;;;;;;4861835;29;20041;-73
2021/10/28 01:31:07;;;;;;;7.00;6.30;;;10.10;99.90;;;;;;4861237;29;20430;-73
2021/10/28 01:33:34;;;;;;;6.50;5.90;;;10.00;99.90;;;;;;4860736;29;20423;-73
2021/10/28 01:35:59;;;;;;;7.20;6.50;;;10.10;99.90;;;;;;4860545;29;20034;-73
2021/10/28 01:38:25;;;;;;;6.85;6.07;;;10.00;99.90;;;;;;4861018;29;20509;-74
2021/10/28 01:40:56;;;;;;;6.95;5.68;;;10.00;99.90;;;;;;4862169;29;20562;-73
2021/10/28 01:43:26;;;;;;;5.30;4.63;;;10.00;99.90;;;;;;4859971;29;20022;-75
2021/10/28 01:45:52;;;;;;;7.05;5.65;;;10.00;99.90;;;;;;4861574;29;20313;-75
2021/10/28 01:48:18;;;;;;;8.18;6.28;;;10.00;99.90;;;;;;4861333;29;20061;-74
2021/10/28 01:50:44;;;;;;;9.35;6.20;;;9.90;99.90;;;;;;4860834;29;20092;-74
2021/10/28 01:53:11;;;;;;;8.07;6.03;;;9.90;99.90;;;;;;4860277;29;20041;-75
2021/10/28 01:55:36;;;;;;;8.32;6.25;;;9.90;99.90;;;;;;4861564;29;20061;-74
2021/10/28 01:58:02;;;;;;;7.82;5.57;;;9.80;99.90;;;;;;4860499;29;20086;-75
2021/10/28 02:00:29;;;;;;;7.60;6.47;;;9.80;99.90;;;;;;4860152;29;20041;-74
2021/10/28 02:02:55;;;;;;;7.40;6.68;;;9.80;99.90;;;;;;4860195;29;20049;-74
2021/10/28 02:05:22;;;;;;;8.00;6.78;;;9.70;99.90;;;;;;4859574;29;20065;-74
2021/10/28 02:07:50;;;;;;;6.57;5.97;;;9.80;99.90;;;;;;4861200;29;20062;-73
2021/10/28 02:10:17;;;;;;;6.75;5.65;;;9.70;99.90;;;;;;4860021;29;20108;-73
2021/10/28 02:12:45;;;;;;;6.43;5.82;;;9.70;99.90;;;;;;4860685;29;20026;-73
2021/10/28 02:15:12;;;;;;;9.88;5.72;;;9.70;99.90;;;;;;4858824;29;20092;-74
2021/10/28 02:17:39;;;;;;;8.10;6.43;;;9.60;99.90;;;;;;4859810;29;20127;-72
2021/10/28 02:20:07;;;;;;;6.63;5.72;;;9.60;99.90;;;;;;4860333;29;20130;-73
2021/10/28 02:22:33;;;;;;;6.22;5.53;;;9.60;99.90;;;;;;4859505;29;20033;-73
2021/10/28 02:24:59;;;;;;;7.07;6.13;;;9.60;99.90;;;;;;4859630;29;20033;-73
2021/10/28 02:27:25;;;;;;;8.30;6.57;;;9.50;99.90;;;;;;4859092;29;20033;-73
2021/10/28 02:29:51;;;;;;;7.68;6.88;;;9.50;99.90;;;;;;4861452;29;20394;-74
2021/10/28 02:32:17;;;;;;;6.80;6.20;;;9.50;99.90;;;;;;4859354;29;20025;-74
2021/10/28 02:34:43;;;;;;;6.80;6.15;;;9.50;99.90;;;;;;4859008;29;20029;-73
2021/10/28 02:37:10;;;;;;;8.68;7.47;;;9.50;99.90;;;;;;4859330;29;20028;-73
2021/10/28 02:39:36;;;;;;;7.38;5.95;;;9.40;99.90;;;;;;4860658;29;20025;-74
2021/10/28 02:42:02;;;;;;;7.78;5.82;;;9.40;99.90;;;;;;4860610;29;20034;-73
2021/10/28 02:44:28;;;;;;;8.10;6.38;;;9.40;99.90;;;;;;4859490;29;20025;-74
2021/10/28 02:46:54;;;;;;;9.32;6.90;;;9.30;99.90;;;;;;4858864;29;20390;-74
2021/10/28 02:49:20;;;;;;;7.05;6.05;;;9.30;99.90;;;;;;4860175;29;20071;-73
2021/10/28 02:51:49;;;;;;;7.53;6.40;;;9.30;99.90;;;;;;4860723;29;20025;-74
2021/10/28 02:54:16;;;;;;;8.13;6.10;;;9.30;99.90;;;;;;4859932;29;20490;-74
2021/10/28 02:56:42;;;;;;;7.55;6.32;;;9.30;99.90;;;;;;4860330;29;20034;-73
2021/10/28 02:59:07;;;;;;;7.22;6.53;;;9.30;99.90;;;;;;4858664;29;20052;-75
2021/10/28 03:01:33;;;;;;;7.18;6.47;;;9.20;99.90;;;;;;4859676;29;20050;-74
2021/10/28 03:03:59;;;;;;;7.47;6.57;;;9.20;99.90;;;;;;4859056;29;20049;-73
2021/10/28 03:06:25;;;;;;;6.68;5.88;;;9.20;99.90;;;;;;4860816;29;20021;-74
2021/10/28 03:08:50;;;;;;;7.28;6.57;;;9.20;99.90;;;;;;4859769;29;20037;-74
2021/10/28 03:11:17;;;;;;;7.80;6.70;;;9.20;99.90;;;;;;4858796;29;20029;-74
2021/10/28 03:13:45;;;;;;;6.97;6.28;;;9.20;99.90;;;;;;4860340;29;20045;-73
2021/10/28 03:16:37;;;;;;;8.65;6.97;;;9.20;99.90;;;;;;4859453;29;20108;-74
2021/10/28 03:27:15;;;;;;;8.05;6.75;;;9.10;99.90;;;;;;4859368;29;20584;-74
2021/10/28 03:29:41;;;;;;;10.23;7.30;;;9.10;99.90;;;;;;4858836;29;20512;-74
2021/10/28 03:32:07;;;;;;;7.97;7.13;;;9.10;99.90;;;;;;4858395;29;20034;-74
2021/10/28 03:34:32;;;;;;;8.75;7.60;;;9.10;99.90;;;;;;4858296;29;20025;-74
2021/10/28 03:47:41;;;;;;;9.27;7.65;;;9.10;99.90;;;;;;4859879;29;20498;-73
2021/10/28 03:50:40;;;;;;;8.60;7.53;;;9.10;99.90;;;;;;4858831;29;20044;-73
2021/10/28 04:04:16;;;;;;;9.35;8.18;;;9.00;99.90;;;;;;4859546;29;20395;-73
2021/10/28 04:20:35;;;;;;;8.40;7.15;;;9.00;99.90;;;;;;4859769;29;20072;-73
2021/10/28 04:31:19;;;;;;;10.02;8.93;;;8.90;99.90;;;;;;4859129;29;20041;-73
2021/10/28 04:33:44;;;;;;;8.73;7.68;;;9.00;99.90;;;;;;4859617;29;20033;-73
2021/10/28 04:36:11;;;;;;;10.77;8.45;;;9.00;99.90;;;;;;4859363;29;20081;-73
2021/10/28 04:38:37;;;;;;;10.05;7.75;;;8.90;99.90;;;;;;4859458;29;20497;-73
2021/10/28 04:41:03;;;;;;;10.20;8.50;;;8.90;99.90;;;;;;4862687;29;20034;-73
2021/10/28 04:43:29;;;;;;;9.50;8.38;;;8.90;99.90;;;;;;4861538;29;20021;-73
2021/10/28 04:45:54;;;;;;;12.00;8.35;;;8.90;99.90;;;;;;4862276;29;20065;-73
2021/10/28 04:48:20;;;;;;;10.45;8.65;;;8.90;99.90;;;;;;4862405;29;20104;-73
2021/10/28 04:50:45;;;;;;;9.90;8.35;;;8.90;99.90;;;;;;4862656;29;20132;-73
2021/10/28 04:53:11;;;;;;;9.30;8.15;;;8.90;99.90;;;;;;4861991;29;20053;-74
2021/10/28 04:55:36;;;;;;;9.52;7.80;;;8.90;99.90;;;;;;4862970;29;20097;-74
2021/10/28 04:58:04;;;;;;;11.82;8.48;;;8.90;99.90;;;;;;4862230;29;20049;-73
2021/10/28 05:00:30;;;;;;;10.68;8.35;;;8.90;99.90;;;;;;4861866;29;20128;-73
2021/10/28 05:02:55;;;;;;;11.32;8.68;;;8.90;99.90;;;;;;4862317;29;20112;-73
2021/10/28 05:05:21;;;;;;;8.80;7.90;;;8.90;99.90;;;;;;4862607;29;20045;-74
2021/10/28 05:07:47;;;;;;;8.57;7.60;;;8.90;99.90;;;;;;4861822;29;20112;-73
2021/10/28 05:10:13;;;;;;;8.80;7.75;;;8.90;99.90;;;;;;4861008;29;20033;-73
2021/10/28 05:12:38;;;;;;;9.65;8.65;;;8.80;99.90;;;;;;4861961;29;20031;-73
2021/10/28 05:15:04;;;;;;;9.75;7.88;;;8.80;99.90;;;;;;4862176;29;20030;-73
2021/10/28 05:17:31;;;;;;;9.93;7.53;;;8.80;99.90;;;;;;4862478;29;20026;-74
2021/10/28 05:19:56;;;;;;;9.30;8.35;;;8.80;99.90;;;;;;4860429;29;20419;-73
2021/10/28 05:22:22;;;;;;;12.02;9.15;;;8.80;99.90;;;;;;4862238;29;20050;-74
2021/10/28 05:24:48;;;;;;;10.18;8.80;;;8.80;99.90;;;;;;4862153;29;20029;-73
2021/10/28 05:27:14;;;;;;;10.88;9.27;;;8.80;99.90;;;;;;4875159;29;20026;-73
2021/10/28 05:29:40;;;;;;;12.48;9.05;;;8.80;99.90;;;;;;4862121;29;20037;-74
2021/10/28 05:32:06;;;;;;;10.25;8.38;;;8.80;99.90;;;;;;4869591;29;20028;-75
2021/10/28 05:34:31;;;;;;;11.80;8.80;;;8.80;99.90;;;;;;4869246;29;20033;-74
2021/10/28 05:36:57;;;;;;;9.32;8.15;;;8.70;99.90;;;;;;4875554;29;20533;-73
2021/10/28 05:39:22;;;;;;;9.18;8.02;;;8.70;99.90;;;;;;4880107;29;20541;-73
2021/10/28 05:41:48;;;;;;;10.02;8.98;;;8.70;99.90;;;;;;4879857;29;20025;-74
2021/10/28 05:44:15;;;;;;;11.60;9.45;;;8.80;99.90;;;;;;4873137;29;20375;-75
2021/10/28 05:46:40;;;;;;;10.43;9.25;;;8.70;99.90;;;;;;4866941;29;20101;-75
2021/10/28 05:49:06;;;;;;;11.02;9.15;;;8.70;99.90;;;;;;4867321;29;20065;-73
2021/10/28 05:51:31;;;;;;;9.45;8.40;;;8.80;99.90;;;;;;4870061;29;20045;-75
2021/10/28 05:53:57;;;;;;;9.27;8.32;;;8.70;99.90;;;;;;4876510;29;20048;-75
2021/10/28 05:56:23;;;;;;;11.35;8.98;;;8.80;99.90;;;;;;4890032;29;20052;-75
2021/10/28 05:58:48;;;;;;;9.25;8.35;;;8.70;99.90;;;;;;4891856;29;20045;-75
2021/10/28 06:01:14;;;;;;;10.88;9.05;;;8.80;99.90;;;;;;4878824;29;20029;-74
2021/10/28 06:03:40;;;;;;;9.30;8.00;;;8.70;99.90;;;;;;4878091;29;20133;-74
2021/10/28 06:06:05;;;;;;;13.55;8.20;;;8.70;99.90;;;;;;4879867;29;20453;-75
2021/10/28 06:08:33;;;;;;;9.35;8.40;;;8.70;99.90;;;;;;4879665;29;20037;-74
2021/10/28 06:10:59;;;;;;;10.38;8.48;;;8.70;99.90;;;;;;4872349;29;20085;-74
2021/10/28 06:13:26;;;;;;;10.43;9.20;;;8.70;99.90;;;;;;4860115;29;20025;-75
2021/10/28 06:15:52;;;;;;;10.68;8.30;;;8.70;99.90;;;;;;4859630;29;20033;-75
2021/10/28 06:20:48;;;;;;;13.82;9.23;;;8.70;99.90;;;;;;4861430;29;20040;-74
2021/10/28 06:23:14;;;;;;;11.18;8.65;;;8.70;99.90;;;;;;4860274;29;20383;-75
2021/10/28 06:25:40;;;;;;;12.75;8.95;;;8.70;99.90;;;;;;4860155;29;20030;-74
2021/10/28 06:28:05;;;;;;;11.43;9.23;;;8.70;99.90;;;;;;4860734;29;20072;-73
2021/10/28 06:30:32;;;;;;;10.63;9.05;;;8.60;99.90;;;;;;4859022;29;20029;-73
2021/10/28 06:33:01;;;;;;;10.93;8.82;;;8.60;99.90;;;;;;4874367;29;20391;-73
2021/10/28 06:35:27;;;;;;;12.07;9.50;;;8.60;99.90;;;;;;4878270;29;20063;-74
2021/10/28 06:37:54;;;;;;;11.82;9.07;;;8.60;99.90;;;;;;4878764;29;20062;-74
2021/10/28 06:40:24;;;;;;;10.02;9.02;;;8.60;99.90;;;;;;4877910;29;20426;-73
2021/10/28 06:42:50;;;;;;;13.38;9.73;;;8.50;99.90;;;;;;4879647;29;20017;-73
2021/10/28 06:45:16;;;;;;;11.98;9.05;;;8.60;99.90;;;;;;4877240;29;20025;-74
2021/10/28 06:47:42;;;;;;;11.57;8.90;;;8.60;99.90;;;;;;4878001;29;20382;-73
2021/10/28 06:50:13;;;;;;;12.00;8.98;;;8.60;99.90;;;;;;4878982;29;20041;-73
2021/10/28 06:52:54;;;;;;;13.55;8.98;;;8.50;99.90;;;;;;4878519;29;20104;-74
2021/10/28 07:03:35;;;;;;;12.30;9.85;;;8.60;99.90;;;;;;4879501;29;20093;-74
2021/10/28 07:06:10;;;;;;;14.15;10.38;;;8.60;99.90;;;;;;4878532;29;20029;-74
2021/10/28 07:08:38;;;;;;;11.73;9.05;;;8.60;99.90;;;;;;4877963;29;20034;-74
2021/10/28 07:11:09;;;;;;;14.43;9.35;;;8.60;99.90;;;;;;4866335;29;20033;-74
2021/10/28 07:13:36;;;;;;;11.27;9.43;;;8.60;99.90;;;;;;4859640;29;20034;-74
2021/10/28 07:16:20;;;;;;;13.50;9.18;;;8.60;99.90;;;;;;4860197;29;20030;-74
2021/10/28 07:18:52;;;;;;;12.40;10.00;;;8.60;99.90;;;;;;4860236;29;20029;-74
2021/10/28 07:26:39;;;;;;;12.15;10.13;;;8.70;99.90;;;;;;4859752;29;19912;-74
2021/10/28 07:35:04;;;;;;;12.15;9.65;;;8.80;99.90;;;;;;4878270;29;20040;-74
2021/10/28 08:05:21;;;;;;;13.85;11.32;;;9.00;99.90;;;;;;4868837;29;20029;-77
2021/10/28 08:13:29;;;;;;;12.88;11.55;;;9.00;99.90;;;;;;4877325;29;20044;-72
2021/10/28 08:18:43;;;;;;;13.90;11.25;;;9.10;99.90;;;;;;4880336;29;20051;-73
2021/10/28 08:29:15;;;;;;;18.40;11.70;;;9.20;99.90;;;;;;4879627;29;20162;-73
2021/10/28 08:31:41;;;;;;;13.90;11.40;;;9.30;99.90;;;;;;4879709;29;20064;-71
2021/10/28 08:34:06;;;;;;;14.98;10.20;;;9.30;99.90;;;;;;4879729;29;20435;-72
2021/10/28 08:36:38;;;;;;;13.45;10.23;;;9.30;99.90;;;;;;4875180;29;20478;-72
2021/10/28 08:39:03;;;;;;;13.57;11.35;;;9.40;99.90;;;;;;4879838;29;20029;-76
2021/10/28 08:41:30;;;;;;;12.40;10.48;;;9.40;99.90;;;;;;4880728;29;20393;-75
2021/10/28 08:43:56;;;;;;;13.43;10.68;;;9.40;99.90;;;;;;4877290;29;20029;-74
2021/10/28 08:46:27;;;;;;;13.90;10.85;;;9.50;99.90;;;;;;4881321;29;20101;-77
2021/10/28 08:48:58;;;;;;;12.20;10.30;;;9.50;99.90;;;;;;4881297;29;20036;-76
2021/10/28 08:51:37;;;;;;;16.63;11.00;;;9.50;99.90;;;;;;4879802;29;20048;-74
2021/10/28 08:57:41;;;;;;;13.57;10.95;;;9.60;99.90;;;;;;4881203;29;20073;-73
2021/10/28 09:25:17;;;;;;;14.88;11.77;;;9.90;99.90;;;;;;4833596;29;20088;-78
2021/10/28 09:27:48;;;;;;;15.73;11.98;;;9.90;99.90;;;;;;4859369;29;20049;-78
2021/10/28 09:30:26;;;;;;;17.02;12.95;;;9.90;99.90;;;;;;4860332;29;20037;-79
2021/10/28 09:32:53;;;;;;;15.80;12.98;;;10.00;99.90;;;;;;4860913;29;20113;-75
2021/10/28 09:43:43;;;;;;;15.07;11.65;;;10.10;99.90;;;;;;4880277;29;20087;-78
2021/10/28 09:54:30;;;;;;;14.02;11.32;;;10.20;99.90;;;;;;4861115;29;20038;-74
2021/10/28 09:59:50;;;;;;;16.08;13.13;;;10.30;99.90;;;;;;4872784;29;20143;-74
2021/10/28 10:02:20;;;;;;;14.52;11.52;;;10.30;99.90;;;;;;4877562;29;20029;-76
2021/10/28 10:04:48;;;;;;;15.63;12.80;;;10.40;99.90;;;;;;4878660;29;20040;-76
2021/10/28 10:07:19;;;;;;;15.32;12.52;;;10.40;99.90;;;;;;4877808;29;20029;-74
2021/10/28 10:09:46;;;;;;;15.30;12.27;;;10.50;99.90;;;;;;4877364;29;20043;-79
2021/10/28 10:12:12;;;;;;;16.15;12.90;;;10.50;99.90;;;;;;4878447;29;20025;-77
2021/10/28 10:14:40;;;;;;;16.83;13.00;;;10.60;99.90;;;;;;4877619;29;20025;-78
2021/10/28 10:17:09;;;;;;;15.77;11.90;;;10.60;99.90;;;;;;4877564;29;20482;-78
2021/10/28 10:19:38;;;;;;;14.23;11.27;;;10.60;99.90;;;;;;4878343;29;20025;-81
2021/10/28 11:03:04;;;;;;;14.95;11.90;;;10.80;99.90;;;;;;4869156;29;20407;-86
2021/10/28 11:19:19;;;;;;;18.40;14.43;;;11.50;99.90;;;;;;4865984;29;20040;-74
2021/10/28 11:22:00;;;;;;;19.08;15.05;;;11.50;99.90;;;;;;4874608;29;20067;-74
2021/10/28 11:32:49;;;;;;;17.35;14.13;;;11.70;99.90;;;;;;4874858;29;20040;-74
2021/10/28 12:17:30;;;;;;;26.50;18.38;;;12.30;99.90;;;;;;4881103;29;20029;-77
2021/10/28 12:20:32;;;;;;;24.27;19.17;;;12.30;99.90;;;;;;4878994;29;20057;-74
2021/10/28 12:28:49;;;;;;;23.00;18.38;;;12.30;99.90;;;;;;4878434;29;20040;-74
2021/10/28 12:51:21;;;;;;;21.27;18.98;;;12.60;99.90;;;;;;4862169;29;20072;-75
2021/10/28 12:56:44;;;;;;;21.15;18.20;;;12.60;99.90;;;;;;4862578;29;20057;-77
2021/10/28 13:35:18;;;;;;;13.73;10.88;;;13.10;99.90;;;;;;4880486;29;20100;-76
2021/10/28 13:51:12;;;;;;;14.43;10.02;;;13.10;99.90;;;;;;4879981;29;20128;-78
2021/10/28 13:56:51;;;;;;;13.15;10.32;;;13.20;99.90;;;;;;4880495;29;20036;-77
2021/10/28 14:21:14;;;;;;;9.75;8.52;;;13.30;99.90;;;;;;4861314;29;20136;-75
2021/10/28 14:23:57;;;;;;;10.00;7.78;;;13.30;99.90;;;;;;4859149;29;20029;-76
2021/10/28 14:32:28;;;;;;;8.85;7.57;;;13.20;99.90;;;;;;4864941;29;20041;-76
2021/10/28 15:00:16;;;;;;;13.23;10.48;;;13.20;99.90;;;;;;4875249;29;20090;-74
2021/10/28 15:02:36;;;;;;;22.38;18.20;;;13.30;99.90;;;;;;4875031;29;20043;-74
2021/10/28 15:29:58;;;;;;;14.70;12.75;;;13.20;99.90;;;;;;4875158;29;20425;-77
2021/10/28 15:54:13;;;;;;;7.88;5.70;;;12.80;99.90;;;;;;4874558;29;20053;-77
2021/10/28 16:23:34;;;;;;;26.55;16.02;;;12.40;99.90;;;;;;4856951;29;20506;-76
2021/10/28 16:26:02;;;;;;;38.25;20.42;;;12.30;99.90;;;;;;4854861;29;20033;-75
2021/10/28 16:28:28;;;;;;;30.35;18.00;;;12.30;99.90;;;;;;4870104;29;20121;-75
2021/10/28 16:30:54;;;;;;;24.92;15.45;;;12.20;99.90;;;;;;4871718;29;20145;-75
2021/10/28 16:33:20;;;;;;;21.85;13.82;;;12.20;99.90;;;;;;4872062;29;20248;-81
2021/10/28 16:35:46;;;;;;;14.75;11.48;;;12.20;99.90;;;;;;4877808;29;20043;-75
2021/10/28 16:38:12;;;;;;;13.63;10.02;;;12.20;99.90;;;;;;4876600;29;20546;-76
2021/10/28 16:40:39;;;;;;;10.40;8.00;;;12.20;99.90;;;;;;4875702;29;20060;-75
2021/10/28 16:43:06;;;;;;;8.82;7.55;;;12.10;99.90;;;;;;4877248;29;20025;-79
2021/10/28 16:45:32;;;;;;;8.20;7.38;;;12.10;99.90;;;;;;4875419;29;20029;-77
2021/10/28 16:47:58;;;;;;;9.50;7.57;;;12.10;99.90;;;;;;4876372;29;20068;-74
2021/10/28 16:50:25;;;;;;;9.18;7.57;;;12.10;99.90;;;;;;4872358;29;20490;-74
2021/10/28 16:52:51;;;;;;;9.70;6.78;;;12.10;99.90;;;;;;4876235;29;20067;-75
2021/10/28 16:55:16;;;;;;;10.55;7.63;;;12.10;99.90;;;;;;4876231;29;20029;-75
2021/10/28 16:57:44;;;;;;;8.27;7.15;;;12.00;99.90;;;;;;4874231;29;20046;-75
2021/10/28 17:00:10;;;;;;;12.57;7.78;;;12.00;99.90;;;;;;4877823;29;20025;-75
2021/10/28 17:02:38;;;;;;;8.32;7.30;;;12.00;99.90;;;;;;4878079;29;20065;-76
2021/10/28 17:05:05;;;;;;;9.68;7.30;;;12.00;99.90;;;;;;4875823;29;20029;-76
2021/10/28 17:07:30;;;;;;;10.75;8.18;;;12.00;99.90;;;;;;4876349;29;20482;-75
2021/10/28 17:09:57;;;;;;;8.40;7.45;;;11.90;99.90;;;;;;4876828;29;20077;-74
2021/10/28 17:12:23;;;;;;;8.75;7.50;;;11.90;99.90;;;;;;4876827;29;20053;-75
2021/10/28 17:14:49;;;;;;;10.45;8.32;;;11.90;99.90;;;;;;4871889;29;20483;-75
2021/10/28 17:17:16;;;;;;;8.77;7.18;;;11.90;99.90;;;;;;4860136;29;20033;-75
2021/10/28 17:19:45;;;;;;;8.25;7.45;;;11.90;99.90;;;;;;4859073;29;20074;-75
2021/10/28 17:22:11;;;;;;;8.77;7.85;;;11.80;99.90;;;;;;4860106;29;20112;-76
2021/10/28 17:24:39;;;;;;;11.23;7.25;;;11.80;99.90;;;;;;4874256;29;20108;-75
2021/10/28 17:27:05;;;;;;;8.50;7.32;;;11.80;99.90;;;;;;4876245;29;20033;-74
2021/10/28 17:29:32;;;;;;;10.15;8.02;;;11.80;99.90;;;;;;4875168;29;20096;-77
2021/10/28 17:31:57;;;;;;;9.43;8.27;;;11.80;99.90;;;;;;4875317;29;20044;-76
2021/10/28 17:34:27;;;;;;;8.63;7.72;;;11.70;99.90;;;;;;4870666;29;20034;-77
2021/10/28 17:36:56;;;;;;;9.15;7.93;;;11.70;99.90;;;;;;4862304;29;20057;-75
2021/10/28 17:39:27;;;;;;;9.10;7.93;;;11.70;99.90;;;;;;4874155;29;20060;-77
2021/10/28 17:41:54;;;;;;;9.20;7.77;;;11.70;99.90;;;;;;4876105;29;20033;-77
2021/10/28 17:44:21;;;;;;;9.05;7.78;;;11.70;99.90;;;;;;4868525;29;20300;-75
2021/10/28 17:46:47;;;;;;;9.70;8.45;;;11.60;99.90;;;;;;4875163;29;20021;-75
2021/10/28 17:49:13;;;;;;;10.57;7.60;;;11.60;99.90;;;;;;4876725;29;20036;-76
2021/10/28 17:51:41;;;;;;;10.50;8.30;;;11.60;99.90;;;;;;4874585;29;20036;-74
2021/10/28 17:54:11;;;;;;;11.98;8.73;;;11.60;99.90;;;;;;4872912;29;20036;-79
2021/10/28 17:56:40;;;;;;;10.90;8.75;;;11.60;99.90;;;;;;4871088;29;20021;-77
2021/10/28 17:59:07;;;;;;;12.30;9.93;;;11.60;99.90;;;;;;4862778;29;20121;-83
2021/10/28 18:01:34;;;;;;;13.75;11.05;;;11.50;99.90;;;;;;4861424;29;20046;-80
2021/10/28 18:04:00;;;;;;;11.88;9.80;;;11.50;99.90;;;;;;4859976;29;20025;-77
2021/10/28 18:06:30;;;;;;;11.52;9.82;;;11.50;99.90;;;;;;4876320;29;20786;-77
2021/10/28 18:08:57;;;;;;;14.25;9.80;;;11.40;99.90;;;;;;4875431;29;20049;-75
2021/10/28 18:11:24;;;;;;;11.93;10.43;;;11.40;99.90;;;;;;4873627;29;20029;-79
2021/10/28 18:13:53;;;;;;;11.55;10.32;;;11.40;99.90;;;;;;4875957;29;20021;-78
2021/10/28 18:16:26;;;;;;;11.52;10.23;;;11.30;99.90;;;;;;4877783;29;20429;-76
2021/10/28 18:18:54;;;;;;;11.98;9.88;;;11.30;99.90;;;;;;4873456;29;20029;-76
2021/10/28 18:21:24;;;;;;;11.60;10.10;;;11.30;99.90;;;;;;4868210;29;20022;-76
2021/10/28 18:23:50;;;;;;;11.98;10.63;;;11.20;99.90;;;;;;4859998;29;20025;-78
2021/10/28 18:26:17;;;;;;;11.40;10.20;;;11.20;99.90;;;;;;4860527;29;20506;-78
2021/10/28 18:28:43;;;;;;;12.27;10.35;;;11.20;99.90;;;;;;4859330;29;20022;-77
2021/10/28 18:31:09;;;;;;;13.50;10.48;;;11.20;99.90;;;;;;4859705;29;20029;-79
2021/10/28 18:33:35;;;;;;;11.98;10.30;;;11.20;99.90;;;;;;4859851;29;20051;-76
2021/10/28 18:36:02;;;;;;;11.25;9.98;;;11.20;99.90;;;;;;4860114;29;20025;-77
2021/10/28 18:38:30;;;;;;;11.23;10.02;;;11.10;99.90;;;;;;4859709;29;20029;-76
2021/10/28 18:40:56;;;;;;;16.05;12.38;;;11.10;99.90;;;;;;4861033;29;20112;-77
2021/10/28 18:43:21;;;;;;;19.02;13.50;;;11.10;99.90;;;;;;4859120;29;20032;-77
2021/10/28 18:45:48;;;;;;;19.65;14.65;;;11.10;99.90;;;;;;4859632;29;20025;-75
2021/10/28 18:48:14;;;;;;;19.85;14.70;;;11.00;99.90;;;;;;4859280;29;20077;-78
2021/10/28 18:50:40;;;;;;;17.38;12.65;;;11.10;99.90;;;;;;4858745;29;20038;-76
2021/10/28 18:53:06;;;;;;;17.40;13.20;;;11.00;99.90;;;;;;4860512;29;20052;-78
2021/10/28 18:55:32;;;;;;;18.05;13.52;;;11.00;99.90;;;;;;4860048;29;20068;-76
2021/10/28 18:57:57;;;;;;;24.30;15.77;;;11.00;99.90;;;;;;4858333;29;20499;-79
2021/10/28 19:00:23;;;;;;;20.83;14.15;;;11.00;99.90;;;;;;4860921;29;20127;-78
2021/10/28 19:02:49;;;;;;;19.35;14.57;;;10.90;99.90;;;;;;4858706;29;20029;-79
2021/10/28 19:05:14;;;;;;;20.40;14.70;;;10.90;99.90;;;;;;4860375;29;20026;-78
2021/10/28 19:07:40;;;;;;;22.30;14.93;;;10.90;99.90;;;;;;4860367;29;20121;-77
2021/10/28 19:10:07;;;;;;;17.33;13.85;;;10.90;99.90;;;;;;4858192;29;20394;-78
2021/10/28 19:12:33;;;;;;;21.88;15.07;;;10.90;99.90;;;;;;4859428;29;20420;-79
2021/10/28 19:14:58;;;;;;;19.35;14.05;;;10.90;99.90;;;;;;4876477;29;20033;-80
2021/10/28 19:17:24;;;;;;;18.60;13.38;;;10.90;99.90;;;;;;4878559;29;20390;-80
2021/10/28 19:19:50;;;;;;;13.75;11.88;;;10.80;99.90;;;;;;4879059;29;20385;-79
2021/10/28 19:22:16;;;;;;;13.07;11.68;;;10.80;99.90;;;;;;4878603;29;20029;-78
2021/10/28 19:24:41;;;;;;;11.30;10.18;;;10.80;99.90;;;;;;4877579;29;20502;-80
2021/10/28 19:27:08;;;;;;;13.43;10.10;;;10.80;99.90;;;;;;4878663;29;20021;-78
2021/10/28 19:29:37;;;;;;;18.85;13.93;;;10.80;99.90;;;;;;4877152;29;20040;-80
2021/10/28 19:32:08;;;;;;;16.92;14.45;;;10.80;99.90;;;;;;4877903;29;20466;-79
2021/10/28 19:34:38;;;;;;;15.77;13.63;;;10.70;99.90;;;;;;4867680;29;20390;-81
2021/10/28 19:40:08;;;;;;;;;;;10.70;99.90;;;;;;4859896;29;20044;-79
2021/10/28 19:48:00;;;;;;;11.43;9.45;;;10.60;99.90;;;;;;4860084;29;20093;-79
2021/10/28 19:50:26;;;;;;;11.80;10.60;;;10.60;99.90;;;;;;4859950;29;20041;-78
2021/10/28 19:52:52;;;;;;;12.95;11.45;;;10.60;99.90;;;;;;4858176;29;20025;-80
2021/10/28 19:55:19;;;;;;;14.30;12.02;;;10.60;99.90;;;;;;4859707;29;20036;-80
2021/10/28 19:57:50;;;;;;;12.13;10.85;;;10.60;99.90;;;;;;4859877;29;20073;-80
2021/10/28 20:21:23;;;;;;;12.18;10.70;;;10.50;99.90;;;;;;4863084;29;20493;-79
2021/10/28 20:23:50;;;;;;;12.65;10.38;;;10.50;99.90;;;;;;4863322;29;20108;-79
2021/10/28 20:26:19;;;;;;;12.70;10.68;;;10.50;99.90;;;;;;4863083;29;20033;-80
2021/10/28 20:28:48;;;;;;;13.77;10.25;;;10.50;99.90;;;;;;4861257;29;20141;-80
2021/10/28 20:31:17;;;;;;;13.80;10.38;;;10.50;99.90;;;;;;4861766;29;20030;-80
2021/10/28 20:33:46;;;;;;;13.32;9.95;;;10.50;99.90;;;;;;4861920;29;20489;-80
2021/10/28 20:38:54;;;;;;;26.67;19.00;;;10.40;99.90;;;;;;4863076;29;20046;-78
2021/10/28 20:41:20;;;;;;;38.03;24.98;;;10.40;99.90;;;;;;4860868;29;20028;-80
2021/10/28 20:43:46;;;;;;;41.70;27.83;;;10.40;99.90;;;;;;4862986;29;20041;-78
2021/10/28 20:46:20;;;;;;;36.00;24.20;;;10.40;99.90;;;;;;4862486;29;20036;-78
2021/10/28 20:48:46;;;;;;;28.52;19.60;;;10.40;99.90;;;;;;4860866;29;20040;-79
2021/10/28 20:51:11;;;;;;;21.75;16.88;;;10.30;99.90;;;;;;4861583;29;20123;-79
2021/10/28 20:53:37;;;;;;;17.15;13.45;;;10.40;99.90;;;;;;4861595;29;20033;-79
2021/10/28 20:56:03;;;;;;;15.73;12.90;;;10.40;99.90;;;;;;4860791;29;20022;-77
2021/10/28 20:58:29;;;;;;;13.65;12.13;;;10.30;99.90;;;;;;4862443;29;20128;-78
2021/10/28 21:00:54;;;;;;;13.50;11.13;;;10.30;99.90;;;;;;4862896;29;20037;-78
2021/10/28 21:03:20;;;;;;;15.23;11.98;;;10.30;99.90;;;;;;4861780;29;20033;-78
2021/10/28 21:05:47;;;;;;;12.93;11.13;;;10.30;99.90;;;;;;4862445;29;20029;-79
2021/10/28 21:08:12;;;;;;;16.20;12.50;;;10.30;99.90;;;;;;4861083;29;20060;-75
2021/10/28 21:10:38;;;;;;;14.88;11.68;;;10.20;99.90;;;;;;4861848;29;20073;-76
2021/10/28 21:13:03;;;;;;;14.77;13.20;;;10.20;99.90;;;;;;4861247;29;20024;-80
2021/10/28 21:15:29;;;;;;;14.88;12.45;;;10.30;99.90;;;;;;4861230;29;20157;-75
2021/10/28 21:17:55;;;;;;;13.88;11.63;;;10.20;99.90;;;;;;4861676;29;20027;-79
2021/10/28 21:20:24;;;;;;;15.10;12.48;;;10.20;99.90;;;;;;4861767;29;20056;-81
2021/10/28 21:22:50;;;;;;;16.73;13.13;;;10.20;99.90;;;;;;4862375;29;20089;-80
2021/10/28 21:25:16;;;;;;;14.57;12.65;;;10.20;99.90;;;;;;4860320;29;20052;-80